Time;durP1;ratioP1;P1;durP2;ratioP2;P2;SDS_P1;SDS_P2;PMS_P1;PMS_P2;Temp;Humidity;BMP_temperature;BMP_pressure;BME280_temperature;BME280_humidity;BME280_pressure;Samples;Min_cycle;Max_cycle;Signal;HPM_P1;HPM_P2
2023/06/25 00:01:05;;;;;;;0.98;0.50;;;15.60;99.90;;;;;;5013450;28;20685;-79
2023/06/25 00:03:38;;;;;;;0.30;0.30;;;15.70;99.90;;;;;;5014950;28;20203;-79
2023/06/25 00:06:09;;;;;;;0.30;0.30;;;15.80;99.90;;;;;;5008477;28;20198;-77
2023/06/25 00:08:40;;;;;;;0.55;0.40;;;15.90;99.90;;;;;;5008407;28;20199;-77
2023/06/25 00:11:10;;;;;;;0.52;0.50;;;15.90;99.90;;;;;;5011726;28;20572;-77
2023/06/25 00:13:41;;;;;;;0.57;0.38;;;16.00;99.90;;;;;;5012051;28;20209;-77
2023/06/25 00:16:12;;;;;;;1.08;0.60;;;16.00;99.90;;;;;;5015577;28;20590;-77
2023/06/25 00:18:45;;;;;;;0.40;0.40;;;16.10;99.90;;;;;;5006576;28;20221;-78
2023/06/25 00:21:16;;;;;;;0.93;0.40;;;16.20;99.90;;;;;;4997607;28;20227;-78
2023/06/25 00:23:46;;;;;;;0.47;0.40;;;16.20;99.90;;;;;;5001068;28;20187;-79
2023/06/25 00:26:17;;;;;;;1.08;0.50;;;16.30;99.90;;;;;;5015137;28;20207;-80
2023/06/25 00:28:48;;;;;;;0.95;0.45;;;16.40;99.90;;;;;;5005184;28;20208;-80
2023/06/25 00:31:19;;;;;;;0.80;0.47;;;16.40;99.90;;;;;;5006514;28;20199;-79
2023/06/25 00:33:51;;;;;;;2.08;0.60;;;16.50;99.90;;;;;;5015609;28;20195;-78
2023/06/25 00:36:22;;;;;;;0.95;0.50;;;16.60;99.90;;;;;;5015259;28;20187;-79
2023/06/25 00:38:53;;;;;;;0.68;0.50;;;16.80;99.90;;;;;;5014685;28;20225;-79
2023/06/25 00:41:26;;;;;;;1.25;0.50;;;16.90;99.90;;;;;;5013534;28;20209;-80
2023/06/25 00:43:57;;;;;;;0.20;0.20;;;17.20;99.90;;;;;;5011003;28;20203;-79
2023/06/25 00:46:28;;;;;;;0.68;0.30;;;17.20;99.90;;;;;;5013394;28;20230;-80
2023/06/25 00:49:05;;;;;;;0.30;0.30;;;17.40;99.90;;;;;;5011481;28;20224;-79
2023/06/25 00:51:37;;;;;;;0.50;0.30;;;17.50;99.90;;;;;;5014640;28;20207;-77
2023/06/25 00:54:08;;;;;;;0.38;0.35;;;17.60;99.90;;;;;;5013551;28;20205;-77
2023/06/25 00:56:39;;;;;;;1.00;0.30;;;17.70;99.90;;;;;;5014701;28;20191;-77
2023/06/25 00:59:10;;;;;;;0.63;0.30;;;17.80;99.90;;;;;;5014115;28;20265;-78
2023/06/25 01:01:47;;;;;;;0.88;0.40;;;17.90;99.90;;;;;;5013166;28;20600;-77
2023/06/25 01:04:25;;;;;;;0.35;0.32;;;18.00;99.90;;;;;;5014266;28;20241;-78
2023/06/25 01:07:00;;;;;;;0.30;0.20;;;18.10;99.90;;;;;;5011102;28;20852;-79
2023/06/25 01:09:32;;;;;;;0.47;0.30;;;18.20;99.90;;;;;;5011047;28;20198;-78
2023/06/25 01:12:07;;;;;;;0.30;0.30;;;18.30;99.90;;;;;;5012066;28;20203;-77
2023/06/25 01:14:41;;;;;;;0.43;0.30;;;18.40;99.90;;;;;;5013705;28;20203;-77
2023/06/25 01:17:12;;;;;;;1.95;0.38;;;18.40;99.90;;;;;;5014397;28;20234;-76
2023/06/25 01:19:45;;;;;;;0.57;0.30;;;18.50;99.90;;;;;;5010229;28;20670;-77
2023/06/25 01:22:18;;;;;;;3.38;0.32;;;18.50;99.90;;;;;;5010579;28;20198;-76
2023/06/25 01:24:51;;;;;;;1.95;0.43;;;18.60;99.90;;;;;;5011939;28;20202;-76
2023/06/25 01:27:22;;;;;;;1.00;0.30;;;18.60;99.90;;;;;;5013464;28;20667;-76
2023/06/25 01:29:54;;;;;;;0.30;0.30;;;18.70;99.90;;;;;;5012115;28;20203;-77
2023/06/25 01:32:25;;;;;;;1.30;0.40;;;18.70;99.90;;;;;;5012399;28;20322;-77
2023/06/25 01:34:56;;;;;;;0.70;0.40;;;18.80;99.90;;;;;;5011274;28;20201;-76
2023/06/25 01:37:28;;;;;;;1.20;0.30;;;18.90;99.90;;;;;;5033897;28;20200;-76
2023/06/25 01:40:01;;;;;;;0.30;0.30;;;19.00;99.90;;;;;;5008677;28;20215;-78
2023/06/25 01:42:32;;;;;;;0.38;0.35;;;19.00;99.90;;;;;;5009307;28;20575;-77
2023/06/25 01:45:03;;;;;;;0.82;0.40;;;19.10;99.90;;;;;;5013321;28;20206;-77
2023/06/25 01:47:34;;;;;;;2.58;0.40;;;19.30;99.90;;;;;;5008604;28;20209;-77
2023/06/25 01:50:05;;;;;;;2.38;0.40;;;19.20;99.90;;;;;;5011357;28;20203;-77
2023/06/25 01:52:36;;;;;;;1.52;0.40;;;19.30;99.90;;;;;;5012372;28;20732;-77
2023/06/25 01:55:09;;;;;;;0.30;0.30;;;19.40;99.90;;;;;;5012402;28;20200;-79
2023/06/25 01:57:40;;;;;;;2.15;0.40;;;19.40;99.90;;;;;;5010857;28;20199;-77
2023/06/25 02:00:12;;;;;;;0.32;0.30;;;19.40;99.90;;;;;;5007290;28;20218;-77
2023/06/25 02:02:43;;;;;;;0.57;0.30;;;19.50;99.90;;;;;;5003306;28;20584;-78
2023/06/25 02:05:14;;;;;;;3.47;0.40;;;19.60;99.90;;;;;;5010253;28;20290;-77
2023/06/25 02:07:45;;;;;;;1.95;0.30;;;19.60;99.90;;;;;;5007969;28;20611;-76
2023/06/25 02:10:17;;;;;;;2.03;0.35;;;19.70;99.90;;;;;;4998603;28;20199;-80
2023/06/25 02:12:49;;;;;;;0.98;0.40;;;19.80;99.90;;;;;;5013689;28;20279;-77
2023/06/25 02:15:19;;;;;;;0.40;0.35;;;19.90;99.90;;;;;;5010816;28;20298;-77
2023/06/25 02:17:51;;;;;;;0.50;0.32;;;19.90;99.90;;;;;;5010047;28;20208;-77
2023/06/25 02:20:21;;;;;;;1.35;0.50;;;20.00;99.90;;;;;;5010075;28;20245;-78
2023/06/25 02:22:52;;;;;;;1.27;0.50;;;20.00;99.90;;;;;;4997120;28;20215;-77
2023/06/25 02:25:25;;;;;;;0.30;0.30;;;20.10;99.90;;;;;;5000715;28;20206;-78
2023/06/25 02:27:55;;;;;;;0.88;0.40;;;20.10;99.90;;;;;;4994027;28;20187;-78
2023/06/25 02:30:26;;;;;;;0.63;0.30;;;20.10;99.90;;;;;;5007830;28;20206;-78
2023/06/25 02:32:57;;;;;;;0.73;0.30;;;20.10;99.90;;;;;;5013106;28;20226;-78
2023/06/25 02:35:28;;;;;;;0.50;0.35;;;20.10;99.90;;;;;;5013351;28;20199;-79
2023/06/25 02:37:59;;;;;;;1.38;0.40;;;20.20;99.90;;;;;;5016792;28;20660;-79
2023/06/25 02:40:31;;;;;;;2.20;0.30;;;20.30;99.90;;;;;;5013584;28;20313;-81
2023/06/25 02:43:02;;;;;;;0.32;0.20;;;20.30;99.90;;;;;;5005480;28;20205;-81
2023/06/25 02:45:33;;;;;;;2.50;0.20;;;20.20;99.90;;;;;;5016459;28;20202;-79
2023/06/25 02:48:04;;;;;;;0.45;0.22;;;20.20;99.90;;;;;;5015989;28;20570;-77
2023/06/25 02:50:35;;;;;;;3.10;0.30;;;20.20;99.90;;;;;;5014056;28;20275;-77
2023/06/25 02:53:05;;;;;;;0.77;0.30;;;20.20;99.90;;;;;;5006435;28;20285;-77
2023/06/25 02:55:38;;;;;;;1.67;0.25;;;20.20;99.90;;;;;;5012240;28;20202;-77
2023/06/25 02:58:09;;;;;;;0.32;0.30;;;20.20;99.90;;;;;;5014417;28;20201;-77
2023/06/25 03:00:40;;;;;;;1.52;0.30;;;20.30;99.90;;;;;;5014639;28;20226;-77
2023/06/25 03:03:11;;;;;;;0.70;0.30;;;20.40;99.90;;;;;;5017082;28;20195;-78
2023/06/25 03:05:41;;;;;;;1.50;0.25;;;20.40;99.90;;;;;;5014233;28;20206;-82
2023/06/25 03:08:12;;;;;;;1.23;0.30;;;20.40;99.90;;;;;;5017022;28;20274;-80
2023/06/25 03:10:45;;;;;;;1.02;0.30;;;20.30;99.90;;;;;;5016024;28;20207;-80
2023/06/25 03:13:16;;;;;;;3.30;0.40;;;20.30;99.90;;;;;;5014350;28;20249;-79
2023/06/25 03:15:46;;;;;;;0.57;0.32;;;20.40;99.90;;;;;;5008192;28;20227;-77
2023/06/25 03:18:17;;;;;;;2.65;0.38;;;20.40;99.90;;;;;;5009825;28;20206;-78
2023/06/25 03:20:48;;;;;;;0.57;0.20;;;20.40;99.90;;;;;;5014275;28;20274;-82
2023/06/25 03:23:19;;;;;;;2.50;0.30;;;20.30;99.90;;;;;;5010738;28;20203;-79
2023/06/25 03:25:52;;;;;;;1.15;0.40;;;20.30;99.90;;;;;;5011328;28;20195;-79
2023/06/25 03:28:22;;;;;;;0.35;0.30;;;20.20;99.90;;;;;;5016498;28;20210;-80
2023/06/25 03:30:53;;;;;;;0.95;0.38;;;20.30;99.90;;;;;;5016501;28;20241;-80
2023/06/25 03:33:24;;;;;;;1.42;0.28;;;20.30;99.90;;;;;;5012710;28;20202;-80
2023/06/25 03:35:55;;;;;;;3.00;0.38;;;20.30;99.90;;;;;;5010296;28;20237;-81
2023/06/25 03:38:26;;;;;;;0.68;0.28;;;20.30;99.90;;;;;;5015839;28;20202;-81
2023/06/25 03:40:58;;;;;;;2.33;0.40;;;20.30;99.90;;;;;;5015906;28;20241;-80
2023/06/25 03:43:29;;;;;;;0.55;0.20;;;20.30;99.90;;;;;;5015251;28;20729;-80
2023/06/25 03:46:00;;;;;;;1.02;0.28;;;20.20;99.90;;;;;;5016203;28;20198;-80
2023/06/25 03:48:31;;;;;;;0.75;0.38;;;20.20;99.90;;;;;;5015363;28;20191;-79
2023/06/25 03:51:01;;;;;;;4.57;0.40;;;20.30;99.90;;;;;;5016102;28;20191;-80
2023/06/25 03:53:33;;;;;;;0.88;0.30;;;20.20;99.90;;;;;;5016042;28;20209;-79
2023/06/25 03:56:06;;;;;;;0.85;0.30;;;20.30;99.90;;;;;;5016049;28;20194;-78
2023/06/25 03:58:38;;;;;;;0.85;0.40;;;20.20;99.90;;;;;;5015804;28;20544;-79
2023/06/25 04:01:09;;;;;;;1.00;0.50;;;20.30;99.90;;;;;;5015898;28;20215;-79
2023/06/25 04:03:40;;;;;;;0.93;0.50;;;20.30;99.90;;;;;;5015744;28;20187;-76
2023/06/25 04:06:10;;;;;;;0.90;0.28;;;20.30;99.90;;;;;;5015892;28;20191;-84
2023/06/25 04:08:43;;;;;;;1.52;0.30;;;20.30;99.90;;;;;;5015777;28;20569;-79
2023/06/25 04:11:16;;;;;;;1.85;0.30;;;20.30;99.90;;;;;;5015774;28;20631;-81
2023/06/25 04:13:47;;;;;;;0.28;0.28;;;20.20;99.90;;;;;;5015538;28;20202;-79
2023/06/25 04:16:18;;;;;;;0.30;0.30;;;20.10;99.90;;;;;;5015637;28;20317;-78
2023/06/25 04:18:48;;;;;;;1.10;0.30;;;20.10;99.90;;;;;;5015360;28;20285;-80
2023/06/25 04:21:19;;;;;;;0.20;0.20;;;20.10;99.90;;;;;;5014627;28;20242;-78
2023/06/25 04:23:50;;;;;;;0.25;0.25;;;20.10;99.90;;;;;;5012017;28;20195;-79
2023/06/25 04:26:23;;;;;;;0.38;0.20;;;20.10;99.90;;;;;;5013004;28;20563;-77
2023/06/25 04:28:54;;;;;;;0.22;0.20;;;20.10;99.90;;;;;;5012551;28;20213;-81
2023/06/25 04:31:24;;;;;;;1.20;0.30;;;20.10;99.90;;;;;;5015186;28;20272;-78
2023/06/25 04:33:55;;;;;;;0.75;0.30;;;20.10;99.90;;;;;;5012991;28;20198;-78
2023/06/25 04:36:26;;;;;;;0.80;0.30;;;20.10;99.90;;;;;;5015117;28;20199;-77
2023/06/25 04:38:57;;;;;;;1.02;0.30;;;20.10;99.90;;;;;;5012867;28;20658;-77
2023/06/25 04:41:30;;;;;;;0.85;0.30;;;20.10;99.90;;;;;;5014285;28;20222;-79
2023/06/25 04:44:00;;;;;;;0.63;0.30;;;20.10;99.90;;;;;;5012257;28;20203;-77
2023/06/25 04:46:31;;;;;;;1.08;0.45;;;20.00;99.90;;;;;;5008479;28;20218;-77
2023/06/25 04:49:02;;;;;;;0.60;0.47;;;20.00;99.90;;;;;;5014764;28;20286;-77
2023/06/25 04:51:34;;;;;;;0.50;0.38;;;20.00;99.90;;;;;;5014957;28;20275;-78
2023/06/25 04:54:05;;;;;;;1.17;0.35;;;20.00;99.90;;;;;;5014769;28;20274;-77
2023/06/25 04:56:38;;;;;;;0.40;0.40;;;20.00;99.90;;;;;;5014922;28;20191;-75
2023/06/25 04:59:08;;;;;;;1.17;0.20;;;20.00;99.90;;;;;;5014873;28;20187;-79
2023/06/25 05:01:39;;;;;;;0.32;0.30;;;19.90;99.90;;;;;;5014601;28;20218;-79
2023/06/25 05:04:10;;;;;;;0.90;0.35;;;19.90;99.90;;;;;;5013384;28;20191;-79
2023/06/25 05:06:41;;;;;;;0.73;0.40;;;19.90;99.90;;;;;;4995250;28;20224;-80
2023/06/25 05:09:12;;;;;;;0.50;0.40;;;19.90;99.90;;;;;;4995066;28;20229;-77
2023/06/25 05:11:45;;;;;;;0.73;0.28;;;19.90;99.90;;;;;;4995058;28;20286;-78
2023/06/25 05:14:16;;;;;;;1.77;0.40;;;19.80;99.90;;;;;;4995776;28;20642;-77
2023/06/25 05:16:46;;;;;;;0.85;0.30;;;19.80;99.90;;;;;;4994714;28;20255;-78
2023/06/25 05:19:17;;;;;;;2.70;0.30;;;19.80;99.90;;;;;;4994858;28;20192;-78
2023/06/25 05:21:48;;;;;;;0.75;0.30;;;19.80;99.90;;;;;;5000370;28;20229;-78
2023/06/25 05:24:19;;;;;;;0.40;0.40;;;19.80;99.90;;;;;;5014478;28;20187;-78
2023/06/25 05:26:52;;;;;;;1.67;0.30;;;19.70;99.90;;;;;;5014382;28;20642;-79
2023/06/25 05:29:22;;;;;;;2.35;0.40;;;19.80;99.90;;;;;;5014239;28;20213;-78
2023/06/25 05:31:55;;;;;;;1.85;0.50;;;19.70;99.90;;;;;;5014150;28;20194;-81
2023/06/25 05:34:26;;;;;;;0.93;0.30;;;19.80;99.90;;;;;;5014296;28;20669;-79
2023/06/25 05:36:57;;;;;;;1.52;0.40;;;19.70;99.90;;;;;;5014238;28;20198;-78
2023/06/25 05:39:29;;;;;;;0.20;0.20;;;19.70;99.90;;;;;;5013965;28;20601;-79
2023/06/25 05:42:02;;;;;;;0.38;0.28;;;19.70;99.90;;;;;;5013993;28;20289;-80
2023/06/25 05:44:33;;;;;;;1.08;0.43;;;19.60;99.90;;;;;;5014174;28;20234;-78
2023/06/25 05:47:04;;;;;;;0.73;0.20;;;19.60;99.90;;;;;;5014621;28;20217;-78
2023/06/25 05:49:34;;;;;;;0.30;0.30;;;19.60;99.90;;;;;;5013163;28;20278;-79
2023/06/25 05:52:05;;;;;;;0.30;0.30;;;19.50;99.90;;;;;;5013205;28;20560;-77
2023/06/25 05:54:36;;;;;;;1.55;0.30;;;19.50;99.90;;;;;;5012860;28;20210;-79
2023/06/25 05:57:10;;;;;;;1.80;0.40;;;19.50;99.90;;;;;;5011578;28;20264;-77
2023/06/25 05:59:40;;;;;;;0.60;0.40;;;19.40;99.90;;;;;;5001954;28;20198;-79
2023/06/25 06:02:12;;;;;;;1.70;0.45;;;19.40;99.90;;;;;;5013701;28;20187;-78
2023/06/25 06:04:43;;;;;;;1.95;0.40;;;19.40;99.90;;;;;;5012101;28;20193;-79
2023/06/25 06:07:14;;;;;;;0.30;0.30;;;19.30;99.90;;;;;;4993780;28;20261;-78
2023/06/25 06:09:44;;;;;;;1.55;0.40;;;19.30;99.90;;;;;;5005958;28;20195;-78
2023/06/25 06:12:17;;;;;;;1.27;0.40;;;19.20;99.90;;;;;;5013598;28;20195;-78
2023/06/25 06:14:48;;;;;;;0.63;0.40;;;19.20;99.90;;;;;;5013507;28;20191;-79
2023/06/25 06:17:19;;;;;;;0.80;0.47;;;19.10;99.90;;;;;;5013861;28;20678;-78
2023/06/25 06:19:50;;;;;;;0.75;0.40;;;19.00;99.90;;;;;;5013486;28;20273;-79
2023/06/25 06:22:21;;;;;;;0.85;0.40;;;19.00;99.90;;;;;;5013650;28;20269;-77
2023/06/25 06:24:53;;;;;;;0.32;0.30;;;18.90;99.90;;;;;;5013666;28;20643;-79
2023/06/25 06:27:25;;;;;;;1.38;0.63;;;18.80;99.90;;;;;;5013591;28;20630;-78
2023/06/25 06:29:56;;;;;;;0.50;0.40;;;18.70;99.90;;;;;;5013075;28;20202;-79
2023/06/25 06:32:27;;;;;;;0.85;0.63;;;18.60;99.90;;;;;;5013501;28;20198;-78
2023/06/25 06:34:57;;;;;;;0.80;0.50;;;18.50;99.90;;;;;;5013599;28;20194;-78
2023/06/25 06:37:29;;;;;;;1.77;0.60;;;18.50;99.90;;;;;;5014126;28;20191;-79
2023/06/25 06:40:00;;;;;;;0.85;0.40;;;18.40;99.90;;;;;;5013763;28;20207;-80
2023/06/25 06:42:34;;;;;;;0.65;0.40;;;18.30;99.90;;;;;;5013547;28;20198;-81
2023/06/25 06:45:05;;;;;;;1.20;0.50;;;18.20;99.90;;;;;;5013507;28;20229;-81
2023/06/25 06:47:36;;;;;;;1.05;0.57;;;18.10;99.90;;;;;;5013273;28;20202;-80
2023/06/25 06:50:07;;;;;;;1.52;0.50;;;18.00;99.90;;;;;;5011542;28;20205;-80
2023/06/25 06:52:38;;;;;;;0.55;0.50;;;17.90;99.90;;;;;;5011936;28;20662;-81
2023/06/25 06:55:09;;;;;;;1.25;0.68;;;17.90;99.90;;;;;;5002138;28;20656;-80
2023/06/25 06:57:42;;;;;;;2.47;0.60;;;17.80;99.90;;;;;;5006371;28;20556;-78
2023/06/25 07:00:15;;;;;;;1.05;0.63;;;17.70;99.90;;;;;;5009046;28;20199;-78
2023/06/25 07:02:46;;;;;;;1.17;0.60;;;17.70;99.90;;;;;;5005235;28;20206;-79
2023/06/25 07:05:17;;;;;;;1.35;0.70;;;17.60;99.90;;;;;;5004797;28;20290;-78
2023/06/25 07:07:48;;;;;;;1.52;0.73;;;17.50;99.90;;;;;;5012276;28;20290;-77
2023/06/25 07:10:18;;;;;;;0.98;0.80;;;17.50;99.90;;;;;;5004792;28;20201;-78
2023/06/25 07:12:51;;;;;;;4.03;0.80;;;17.50;99.90;;;;;;5011851;28;20670;-78
2023/06/25 07:15:22;;;;;;;1.48;0.80;;;17.40;99.90;;;;;;5011926;28;20258;-79
2023/06/25 07:17:53;;;;;;;0.75;0.50;;;17.30;99.90;;;;;;5011778;28;20199;-77
2023/06/25 07:20:24;;;;;;;1.55;0.70;;;17.30;99.90;;;;;;5013993;28;20261;-77
2023/06/25 07:22:55;;;;;;;2.00;0.75;;;17.20;99.90;;;;;;5000660;28;20750;-78
2023/06/25 07:25:25;;;;;;;1.70;0.90;;;17.10;99.90;;;;;;5013561;28;20202;-78
2023/06/25 07:27:58;;;;;;;1.67;0.90;;;17.10;99.90;;;;;;5015600;28;20203;-77
2023/06/25 07:30:29;;;;;;;2.55;0.85;;;17.00;99.90;;;;;;5014634;28;20209;-78
2023/06/25 07:33:00;;;;;;;1.73;0.80;;;16.90;99.90;;;;;;5007636;28;20191;-80
2023/06/25 07:35:31;;;;;;;1.10;0.90;;;16.90;99.90;;;;;;5022071;28;20191;-78
2023/06/25 07:38:02;;;;;;;0.88;0.70;;;16.90;99.90;;;;;;5025823;28;20205;-78
2023/06/25 07:40:32;;;;;;;1.88;0.90;;;16.80;99.90;;;;;;5009720;28;20583;-78
2023/06/25 07:43:06;;;;;;;2.28;0.90;;;16.80;99.90;;;;;;5013647;28;20195;-78
2023/06/25 07:45:38;;;;;;;2.35;1.00;;;16.70;99.90;;;;;;5014016;28;20206;-79
2023/06/25 07:48:09;;;;;;;1.88;0.70;;;16.70;99.90;;;;;;5014699;28;20248;-78
2023/06/25 07:50:40;;;;;;;1.00;0.60;;;16.60;99.90;;;;;;5010335;28;20207;-79
2023/06/25 07:53:11;;;;;;;1.55;0.70;;;16.60;99.90;;;;;;5014747;28;20281;-79
2023/06/25 07:55:44;;;;;;;0.90;0.70;;;16.60;99.90;;;;;;5011958;28;20254;-79
2023/06/25 07:58:17;;;;;;;1.52;0.88;;;16.50;99.90;;;;;;5011852;28;20206;-79
2023/06/25 08:00:48;;;;;;;1.20;0.80;;;16.50;99.90;;;;;;5014251;28;20215;-79
2023/06/25 08:03:19;;;;;;;2.33;1.10;;;16.50;99.90;;;;;;5013769;28;20195;-77
2023/06/25 08:05:50;;;;;;;1.67;0.90;;;16.50;99.90;;;;;;5012650;28;20205;-77
2023/06/25 08:08:21;;;;;;;1.30;0.82;;;16.40;99.90;;;;;;5014177;28;20234;-79
2023/06/25 08:10:52;;;;;;;1.27;0.80;;;16.40;99.90;;;;;;5009875;28;20207;-79
2023/06/25 08:13:25;;;;;;;1.52;1.00;;;16.40;99.90;;;;;;5014937;28;20221;-79
2023/06/25 08:15:56;;;;;;;2.17;0.93;;;16.30;99.90;;;;;;5011614;28;20231;-79
2023/06/25 08:18:27;;;;;;;1.70;0.90;;;16.30;99.90;;;;;;5010917;28;20660;-79
2023/06/25 08:20:57;;;;;;;1.08;0.90;;;16.20;99.90;;;;;;5013506;28;20601;-79
2023/06/25 08:23:28;;;;;;;2.45;1.00;;;16.10;99.90;;;;;;5009131;28;20202;-80
2023/06/25 08:25:59;;;;;;;1.30;1.00;;;16.00;99.90;;;;;;5010553;28;20206;-79
2023/06/25 08:28:32;;;;;;;2.75;1.30;;;15.90;99.90;;;;;;5010064;28;20203;-80
2023/06/25 08:31:02;;;;;;;2.05;1.00;;;15.90;99.90;;;;;;5011938;28;20229;-79
2023/06/25 08:33:33;;;;;;;2.00;1.10;;;15.80;99.90;;;;;;5012574;28;20673;-79
2023/06/25 08:36:04;;;;;;;1.42;1.10;;;15.80;99.90;;;;;;5013065;28;20663;-79
2023/06/25 08:38:35;;;;;;;1.35;1.00;;;15.70;99.90;;;;;;5009712;28;20199;-80
2023/06/25 08:41:06;;;;;;;2.53;1.08;;;15.70;99.90;;;;;;5012725;28;20708;-79
2023/06/25 08:43:39;;;;;;;3.38;1.20;;;15.60;99.90;;;;;;5013357;28;20213;-79
2023/06/25 08:46:11;;;;;;;1.25;0.80;;;15.60;99.90;;;;;;5013679;28;20207;-79
2023/06/25 08:48:42;;;;;;;0.85;0.65;;;15.60;99.90;;;;;;5013789;28;20210;-77
2023/06/25 08:51:18;;;;;;;1.33;0.73;;;15.50;99.90;;;;;;5014717;28;20195;-79
2023/06/25 08:53:49;;;;;;;1.20;0.68;;;15.50;99.90;;;;;;5012644;28;20668;-79
2023/06/25 08:56:20;;;;;;;1.27;0.80;;;15.50;99.90;;;;;;5012611;28;20203;-79
2023/06/25 08:58:53;;;;;;;1.75;0.95;;;15.40;99.90;;;;;;5013118;28;20233;-79
2023/06/25 09:01:24;;;;;;;1.27;0.80;;;15.40;99.90;;;;;;5010768;28;20591;-79
2023/06/25 09:03:56;;;;;;;0.98;0.85;;;15.40;99.90;;;;;;5010925;28;21973;-78
2023/06/25 09:06:27;;;;;;;1.13;0.80;;;15.40;99.90;;;;;;5013519;28;20680;-78
2023/06/25 09:08:58;;;;;;;1.08;0.73;;;15.40;99.90;;;;;;5010032;28;20202;-79
2023/06/25 09:11:34;;;;;;;1.42;0.88;;;15.40;99.90;;;;;;5010474;28;20203;-79
2023/06/25 09:14:07;;;;;;;1.10;0.70;;;15.30;99.90;;;;;;5001375;28;20237;-79
2023/06/25 09:16:48;;;;;;;1.95;0.63;;;15.30;99.90;;;;;;5011656;28;20233;-79
2023/06/25 09:19:23;;;;;;;1.25;0.68;;;15.20;99.90;;;;;;5003440;28;20721;-79
2023/06/25 09:21:54;;;;;;;1.27;0.73;;;15.10;99.90;;;;;;5010038;28;20225;-79
2023/06/25 09:24:26;;;;;;;1.15;0.75;;;15.10;99.90;;;;;;5013853;28;20203;-79
2023/06/25 09:26:57;;;;;;;1.60;0.82;;;15.00;99.90;;;;;;5011286;28;20203;-79
2023/06/25 09:29:37;;;;;;;1.08;0.80;;;14.90;99.90;;;;;;5012929;28;20634;-79
2023/06/25 09:32:11;;;;;;;2.40;1.00;;;14.90;99.90;;;;;;5010949;28;20218;-79
2023/06/25 09:34:43;;;;;;;1.30;1.05;;;14.80;99.90;;;;;;5017999;28;20206;-80
2023/06/25 09:37:14;;;;;;;1.70;0.80;;;14.80;99.90;;;;;;5012906;28;20305;-79
2023/06/25 09:39:45;;;;;;;1.20;0.90;;;14.70;99.90;;;;;;5011621;28;20206;-79
2023/06/25 09:42:17;;;;;;;1.95;0.80;;;14.70;99.90;;;;;;5012609;28;20690;-79
2023/06/25 09:44:52;;;;;;;2.40;1.08;;;14.60;99.90;;;;;;5013045;28;20206;-80
2023/06/25 09:47:24;;;;;;;2.70;0.90;;;14.60;99.90;;;;;;5012330;28;20207;-80
2023/06/25 09:49:56;;;;;;;2.10;0.95;;;14.60;99.90;;;;;;5013222;28;20678;-78
2023/06/25 09:52:29;;;;;;;2.55;1.50;;;14.50;99.90;;;;;;5012894;28;20697;-79
2023/06/25 09:55:01;;;;;;;3.50;1.48;;;14.50;99.90;;;;;;5013276;28;20209;-79
2023/06/25 09:57:32;;;;;;;3.67;1.80;;;14.50;99.90;;;;;;5012108;28;20201;-81
2023/06/25 10:00:05;;;;;;;3.05;1.60;;;14.40;99.90;;;;;;5013181;28;20286;-78
2023/06/25 10:02:36;;;;;;;2.50;1.33;;;14.30;99.90;;;;;;5010554;28;20222;-79
2023/06/25 10:05:07;;;;;;;2.90;1.38;;;14.30;99.90;;;;;;5011715;28;20206;-80
2023/06/25 10:07:38;;;;;;;1.48;1.20;;;14.30;99.90;;;;;;5010430;28;20329;-80
2023/06/25 10:10:20;;;;;;;1.50;1.00;;;14.20;99.90;;;;;;5012161;28;20205;-80
2023/06/25 10:12:52;;;;;;;1.55;0.90;;;14.20;99.90;;;;;;5010796;28;20261;-79
2023/06/25 10:15:34;;;;;;;1.92;0.90;;;14.20;99.90;;;;;;5010375;28;20691;-80
2023/06/25 10:18:06;;;;;;;2.45;0.80;;;14.10;99.90;;;;;;4993759;28;20567;-80
2023/06/25 10:20:38;;;;;;;1.67;0.90;;;14.10;99.90;;;;;;5009337;28;20817;-80
2023/06/25 10:23:10;;;;;;;1.65;0.90;;;14.10;99.90;;;;;;5006979;28;20226;-80
2023/06/25 10:25:43;;;;;;;1.20;0.80;;;14.10;99.90;;;;;;5002022;28;20647;-80
2023/06/25 10:28:14;;;;;;;0.73;0.70;;;14.10;99.90;;;;;;5010013;28;20205;-79
2023/06/25 10:30:50;;;;;;;2.13;1.02;;;14.00;99.90;;;;;;5012320;28;20199;-79
2023/06/25 10:33:31;;;;;;;1.40;0.88;;;14.00;99.90;;;;;;5010316;28;20645;-79
2023/06/25 10:36:09;;;;;;;1.45;0.90;;;13.90;99.90;;;;;;5010402;28;20659;-80
2023/06/25 10:38:41;;;;;;;1.88;0.90;;;13.90;99.90;;;;;;5013374;28;20571;-78
2023/06/25 10:41:12;;;;;;;1.92;0.82;;;13.90;99.90;;;;;;4993842;28;20223;-79
2023/06/25 10:43:43;;;;;;;0.98;0.80;;;13.80;99.90;;;;;;5000621;28;20203;-79
2023/06/25 10:46:15;;;;;;;2.83;1.00;;;13.80;99.90;;;;;;5011440;28;20599;-79
2023/06/25 10:48:49;;;;;;;1.23;0.88;;;13.80;99.90;;;;;;5013342;28;20225;-79
2023/06/25 10:51:20;;;;;;;1.88;0.90;;;13.70;99.90;;;;;;5013156;28;20195;-79
2023/06/25 10:53:52;;;;;;;2.88;0.90;;;13.70;99.90;;;;;;5016051;28;20194;-80
2023/06/25 10:56:24;;;;;;;2.45;1.10;;;13.60;99.90;;;;;;5015836;28;20203;-78
2023/06/25 10:58:58;;;;;;;0.93;0.70;;;13.50;99.90;;;;;;5016972;28;20297;-78
2023/06/25 11:01:36;;;;;;;1.92;1.08;;;13.40;99.90;;;;;;4997929;28;20230;-77
2023/06/25 11:04:17;;;;;;;1.17;0.80;;;13.40;99.90;;;;;;5010340;28;20221;-79
2023/06/25 11:06:48;;;;;;;1.98;0.88;;;13.30;99.90;;;;;;5017154;28;20277;-80
2023/06/25 11:09:19;;;;;;;2.97;1.00;;;13.30;99.90;;;;;;5017040;28;20217;-79
2023/06/25 11:11:53;;;;;;;1.88;0.90;;;13.30;99.90;;;;;;5016800;28;20198;-79
2023/06/25 11:14:25;;;;;;;4.13;0.98;;;13.20;99.90;;;;;;5016991;28;20195;-79
2023/06/25 11:16:58;;;;;;;1.30;0.80;;;13.20;99.90;;;;;;5015371;28;20677;-79
2023/06/25 11:19:31;;;;;;;4.25;0.88;;;13.20;99.90;;;;;;5016508;28;20277;-79
2023/06/25 11:22:06;;;;;;;1.08;0.70;;;13.10;99.90;;;;;;5016819;28;20555;-79
2023/06/25 11:24:39;;;;;;;2.90;0.70;;;13.10;99.90;;;;;;5016046;28;20801;-79
2023/06/25 11:27:10;;;;;;;1.75;0.93;;;13.10;99.90;;;;;;5021893;28;20201;-79
2023/06/25 11:29:41;;;;;;;2.72;1.00;;;13.10;99.90;;;;;;5016390;28;20209;-79
2023/06/25 11:32:25;;;;;;;2.35;1.23;;;13.10;99.90;;;;;;5015794;28;20203;-79
2023/06/25 11:34:56;;;;;;;2.28;1.00;;;13.10;99.90;;;;;;4996932;28;20640;-79
2023/06/25 11:37:27;;;;;;;1.15;0.80;;;13.10;99.90;;;;;;4996891;28;20214;-80
2023/06/25 11:39:58;;;;;;;2.42;0.90;;;13.20;99.90;;;;;;5000258;28;20634;-79
2023/06/25 11:42:30;;;;;;;3.00;0.80;;;13.10;99.90;;;;;;5016457;28;20298;-80
2023/06/25 11:45:05;;;;;;;1.73;0.98;;;13.10;99.90;;;;;;5016332;28;20191;-80
2023/06/25 11:47:38;;;;;;;1.42;0.95;;;13.10;99.90;;;;;;5014638;28;20195;-80
2023/06/25 11:50:12;;;;;;;2.03;0.90;;;13.10;99.90;;;;;;5014017;28;20203;-79
2023/06/25 11:52:43;;;;;;;2.10;0.90;;;13.10;99.90;;;;;;4997154;28;20207;-81
2023/06/25 11:55:14;;;;;;;1.70;0.98;;;13.10;99.90;;;;;;4998514;28;20551;-80
2023/06/25 11:57:45;;;;;;;1.02;0.80;;;13.10;99.90;;;;;;5016784;28;20191;-80
2023/06/25 12:00:16;;;;;;;1.15;0.70;;;13.10;99.90;;;;;;5016643;28;20198;-79
2023/06/25 12:02:49;;;;;;;3.25;0.85;;;13.10;99.90;;;;;;5015962;28;20223;-80
2023/06/25 12:05:20;;;;;;;1.80;0.65;;;13.10;99.90;;;;;;5015702;28;20217;-79
2023/06/25 12:07:51;;;;;;;1.52;0.50;;;13.10;99.90;;;;;;5015088;28;20257;-79
2023/06/25 12:10:22;;;;;;;0.90;0.60;;;13.10;99.90;;;;;;5016073;28;20222;-79
2023/06/25 12:12:54;;;;;;;1.08;0.60;;;13.20;99.90;;;;;;5014204;28;20203;-79
2023/06/25 12:15:25;;;;;;;0.50;0.50;;;13.20;99.90;;;;;;5014817;28;20694;-79
2023/06/25 12:17:58;;;;;;;1.17;0.50;;;13.20;99.90;;;;;;5014891;28;20289;-79
2023/06/25 12:20:29;;;;;;;2.10;0.63;;;13.30;99.90;;;;;;5015409;28;20277;-78
2023/06/25 12:23:00;;;;;;;1.80;0.60;;;13.30;99.90;;;;;;5015039;28;20678;-79
2023/06/25 12:25:31;;;;;;;0.80;0.60;;;13.40;99.90;;;;;;4996249;28;20214;-78
2023/06/25 12:28:01;;;;;;;3.05;0.60;;;13.40;99.90;;;;;;5026366;28;20206;-81
2023/06/25 12:30:32;;;;;;;1.63;0.63;;;13.40;99.90;;;;;;5018024;28;20213;-78
2023/06/25 12:33:05;;;;;;;1.35;0.68;;;13.40;99.90;;;;;;5015322;28;20238;-78
2023/06/25 12:35:36;;;;;;;1.38;0.70;;;13.50;99.90;;;;;;5013899;28;20326;-79
2023/06/25 12:38:06;;;;;;;1.10;0.60;;;13.50;99.90;;;;;;5015004;28;20217;-78
2023/06/25 12:40:37;;;;;;;1.50;0.50;;;13.50;99.90;;;;;;5014759;28;20202;-78
2023/06/25 12:43:08;;;;;;;1.80;0.80;;;13.60;99.90;;;;;;5014964;28;20218;-79
2023/06/25 12:45:39;;;;;;;0.70;0.60;;;13.60;99.90;;;;;;5013983;28;20187;-78
2023/06/25 12:48:12;;;;;;;1.02;0.50;;;13.60;99.90;;;;;;5014387;28;20202;-77
2023/06/25 12:50:43;;;;;;;0.82;0.50;;;13.60;99.90;;;;;;5012593;28;20570;-78
2023/06/25 12:53:13;;;;;;;1.00;0.45;;;13.60;99.90;;;;;;5015127;28;20194;-78
2023/06/25 12:55:44;;;;;;;0.90;0.55;;;13.60;99.90;;;;;;5014551;28;20538;-77
2023/06/25 12:58:15;;;;;;;1.15;0.60;;;13.60;99.90;;;;;;5015342;28;20312;-78
2023/06/25 13:00:46;;;;;;;1.95;0.70;;;13.60;99.90;;;;;;5015011;28;20197;-77
2023/06/25 13:03:19;;;;;;;0.85;0.70;;;13.60;99.90;;;;;;5013835;28;20222;-78
2023/06/25 13:05:49;;;;;;;1.13;0.75;;;13.50;99.90;;;;;;5011776;28;20242;-78
2023/06/25 13:08:23;;;;;;;1.30;0.52;;;13.50;99.90;;;;;;5012912;28;20203;-77
2023/06/25 13:10:54;;;;;;;1.10;0.50;;;13.50;99.90;;;;;;5024566;28;20203;-77